Time;durP1;ratioP1;P1;durP2;ratioP2;P2;SDS_P1;SDS_P2;PMS_P1;PMS_P2;Temp;Humidity;BMP_temperature;BMP_pressure;BME280_temperature;BME280_humidity;BME280_pressure;Samples;Min_cycle;Max_cycle;Signal;HPM_P1;HPM_P2
2023/07/06 00:01:21;;;;;;;7.35;4.50;;;12.40;99.90;;;;;;4975538;28;20477;-78
2023/07/06 00:03:47;;;;;;;13.23;5.32;;;12.50;99.90;;;;;;4988580;28;20443;-78
2023/07/06 00:06:13;;;;;;;7.70;5.22;;;12.50;99.90;;;;;;4988138;28;20426;-78
2023/07/06 00:08:39;;;;;;;6.28;4.80;;;12.40;99.90;;;;;;4972765;28;20446;-79
2023/07/06 00:11:05;;;;;;;8.40;4.88;;;12.50;99.90;;;;;;4990660;28;20802;-77
2023/07/06 00:13:34;;;;;;;8.95;4.90;;;12.50;99.90;;;;;;4994698;28;20427;-77
2023/07/06 00:16:00;;;;;;;7.20;4.80;;;12.50;99.90;;;;;;4978900;28;20933;-77
2023/07/06 00:18:27;;;;;;;7.97;5.43;;;12.60;99.90;;;;;;4986978;28;20465;-76
2023/07/06 00:20:53;;;;;;;6.30;5.18;;;12.50;99.90;;;;;;4998285;28;20776;-75
2023/07/06 00:23:21;;;;;;;7.20;5.22;;;12.50;99.90;;;;;;4986596;28;20443;-79
2023/07/06 00:25:47;;;;;;;7.65;5.03;;;12.40;99.90;;;;;;4989759;28;20485;-77
2023/07/06 00:28:14;;;;;;;11.77;5.25;;;12.40;99.90;;;;;;4987979;28;20418;-77
2023/07/06 00:30:52;;;;;;;8.48;5.55;;;12.40;99.90;;;;;;4959410;28;20437;-78
2023/07/06 00:33:19;;;;;;;9.70;5.65;;;12.40;99.90;;;;;;4985936;28;20442;-77
2023/07/06 00:35:46;;;;;;;8.40;5.43;;;12.30;99.90;;;;;;4983357;28;20608;-80
2023/07/06 00:38:15;;;;;;;8.07;5.88;;;12.30;99.90;;;;;;4985657;28;20418;-78
2023/07/06 00:40:43;;;;;;;8.63;5.43;;;12.30;99.90;;;;;;4986452;28;20976;-76
2023/07/06 00:43:11;;;;;;;7.00;5.45;;;12.20;99.90;;;;;;4991314;28;20425;-77
2023/07/06 00:45:40;;;;;;;7.80;5.70;;;12.30;99.90;;;;;;4979033;28;20521;-76
2023/07/06 00:48:21;;;;;;;8.40;5.82;;;12.20;99.90;;;;;;4990779;28;20417;-76
2023/07/06 00:50:55;;;;;;;8.87;6.30;;;12.30;99.90;;;;;;4980450;28;20433;-77
2023/07/06 00:53:23;;;;;;;11.07;6.03;;;12.20;99.90;;;;;;4987012;28;20426;-78
2023/07/06 00:55:51;;;;;;;9.18;5.88;;;12.20;99.90;;;;;;4990754;28;20447;-78
2023/07/06 00:58:22;;;;;;;8.55;5.97;;;12.10;99.90;;;;;;4992997;28;20420;-78
2023/07/06 01:00:49;;;;;;;8.15;6.15;;;12.20;99.90;;;;;;5000419;28;20422;-80
2023/07/06 01:03:19;;;;;;;9.02;5.60;;;12.20;99.90;;;;;;4991735;28;20420;-77
2023/07/06 01:05:48;;;;;;;7.03;5.82;;;12.20;99.90;;;;;;4993032;28;20459;-78
2023/07/06 01:08:19;;;;;;;9.77;6.57;;;12.10;99.90;;;;;;4987901;28;20462;-76
2023/07/06 01:10:46;;;;;;;8.40;6.57;;;12.10;99.90;;;;;;4987065;28;20433;-77
2023/07/06 01:13:12;;;;;;;8.52;6.13;;;12.10;99.90;;;;;;4992562;28;20545;-77
2023/07/06 01:15:51;;;;;;;10.40;6.35;;;12.20;99.90;;;;;;4992549;28;20893;-76
2023/07/06 01:18:27;;;;;;;9.57;6.63;;;12.20;99.90;;;;;;4992818;28;20773;-77
2023/07/06 01:21:11;;;;;;;10.25;6.85;;;12.20;99.90;;;;;;4972593;28;20434;-78
2023/07/06 01:23:58;;;;;;;11.00;7.15;;;12.10;99.90;;;;;;5004376;28;20451;-77
2023/07/06 01:26:26;;;;;;;12.48;7.72;;;12.20;99.90;;;;;;4987335;28;20429;-79
2023/07/06 01:29:14;;;;;;;10.68;8.07;;;12.10;99.90;;;;;;4976618;28;20956;-77
2023/07/06 01:32:13;;;;;;;9.88;6.93;;;12.20;99.90;;;;;;4985194;28;20431;-77
2023/07/06 01:34:44;;;;;;;9.20;7.27;;;12.20;99.90;;;;;;4993946;28;20529;-78
2023/07/06 01:37:14;;;;;;;9.15;6.85;;;12.10;99.90;;;;;;4994229;28;20485;-77
2023/07/06 01:39:40;;;;;;;9.75;7.35;;;12.20;99.90;;;;;;4993129;28;20414;-78
2023/07/06 01:42:12;;;;;;;10.55;7.32;;;12.20;99.90;;;;;;4991739;28;20418;-80
2023/07/06 01:44:41;;;;;;;7.90;6.68;;;12.10;99.90;;;;;;4991246;28;20434;-78
2023/07/06 01:47:10;;;;;;;7.65;6.85;;;12.10;99.90;;;;;;4991462;28;20430;-77
2023/07/06 01:49:36;;;;;;;8.88;6.95;;;12.20;99.90;;;;;;4973221;28;20519;-79
2023/07/06 01:52:37;;;;;;;9.20;7.15;;;12.20;99.90;;;;;;4997436;28;20481;-76
2023/07/06 01:55:20;;;;;;;11.97;8.17;;;12.20;99.90;;;;;;4981726;28;20434;-76
2023/07/06 01:58:00;;;;;;;8.52;6.82;;;12.20;99.90;;;;;;4987067;28;20780;-76
2023/07/06 02:00:29;;;;;;;9.55;7.85;;;12.20;99.90;;;;;;4990773;28;20746;-75
2023/07/06 02:02:55;;;;;;;9.02;7.88;;;12.20;99.90;;;;;;4995414;28;20421;-80
2023/07/06 02:05:23;;;;;;;11.02;7.43;;;12.20;99.90;;;;;;5006468;28;20422;-76
2023/07/06 02:07:51;;;;;;;10.18;7.55;;;12.10;99.90;;;;;;5006224;28;20423;-75
2023/07/06 02:10:19;;;;;;;9.88;8.43;;;12.10;99.90;;;;;;4975233;28;20462;-75
2023/07/06 02:12:47;;;;;;;10.13;7.97;;;12.20;99.90;;;;;;4993931;28;20833;-75
2023/07/06 02:15:19;;;;;;;11.63;8.15;;;12.10;99.90;;;;;;4991814;28;20863;-76
2023/07/06 02:17:51;;;;;;;12.73;8.25;;;12.10;99.90;;;;;;4996959;28;20416;-75
2023/07/06 02:20:19;;;;;;;10.53;8.23;;;12.10;99.90;;;;;;5011767;28;20461;-77
2023/07/06 02:22:45;;;;;;;12.23;7.83;;;12.10;99.90;;;;;;4981599;28;20483;-77
2023/07/06 02:25:12;;;;;;;13.35;9.02;;;12.10;99.90;;;;;;4990081;28;20414;-78
2023/07/06 02:27:37;;;;;;;12.82;9.20;;;12.10;99.90;;;;;;4990077;28;20812;-77
2023/07/06 02:30:07;;;;;;;11.35;9.15;;;12.10;99.90;;;;;;4991632;28;20426;-77
2023/07/06 02:32:34;;;;;;;11.38;9.27;;;12.10;99.90;;;;;;5004662;28;20442;-77
2023/07/06 02:35:02;;;;;;;14.68;8.85;;;12.20;99.90;;;;;;4987432;28;20444;-79
2023/07/06 02:37:28;;;;;;;12.15;9.55;;;12.20;99.90;;;;;;4985859;28;20418;-80
2023/07/06 02:39:58;;;;;;;12.93;9.32;;;12.10;99.90;;;;;;4981324;28;20441;-78
2023/07/06 02:42:25;;;;;;;13.93;9.90;;;12.10;99.90;;;;;;4998082;28;20772;-78
2023/07/06 02:44:50;;;;;;;12.35;9.27;;;12.10;99.90;;;;;;5001811;28;20784;-78
2023/07/06 02:47:16;;;;;;;17.17;11.17;;;12.20;99.90;;;;;;4983657;28;20418;-78
2023/07/06 02:49:42;;;;;;;13.77;10.27;;;12.10;99.90;;;;;;4996523;28;20516;-76
2023/07/06 02:52:08;;;;;;;13.00;10.23;;;12.00;99.90;;;;;;4998593;28;20431;-77
2023/07/06 02:54:33;;;;;;;14.03;10.50;;;12.00;99.90;;;;;;4998589;28;20435;-77
2023/07/06 02:57:02;;;;;;;14.97;10.40;;;12.10;99.90;;;;;;4994945;28;20483;-78
2023/07/06 02:59:32;;;;;;;15.10;11.05;;;12.10;99.90;;;;;;4985932;28;20436;-76
2023/07/06 03:01:58;;;;;;;13.07;9.40;;;12.10;99.90;;;;;;4989842;28;20960;-76
2023/07/06 03:04:24;;;;;;;15.00;10.70;;;12.10;99.90;;;;;;4990605;28;20442;-78
2023/07/06 03:06:51;;;;;;;13.18;9.52;;;12.20;99.90;;;;;;4997210;28;20751;-78
2023/07/06 03:09:17;;;;;;;11.82;9.50;;;12.20;99.90;;;;;;4970720;28;20442;-77
2023/07/06 03:11:44;;;;;;;12.75;10.50;;;12.10;99.90;;;;;;4992189;28;20445;-78
2023/07/06 03:14:10;;;;;;;12.85;9.45;;;12.20;99.90;;;;;;5007192;28;20443;-77
2023/07/06 03:16:39;;;;;;;12.43;9.50;;;12.20;99.90;;;;;;4989987;28;21066;-76
2023/07/06 03:19:10;;;;;;;12.40;9.38;;;12.30;99.90;;;;;;4988982;28;20433;-76
2023/07/06 03:21:40;;;;;;;12.00;9.07;;;12.30;99.90;;;;;;4989369;28;20422;-79
2023/07/06 03:24:09;;;;;;;11.05;9.63;;;12.40;99.90;;;;;;4996997;28;20436;-77
2023/07/06 03:26:36;;;;;;;12.60;9.07;;;12.30;99.90;;;;;;5007091;28;20417;-79
2023/07/06 03:29:04;;;;;;;11.15;8.48;;;12.40;99.90;;;;;;4998550;28;20430;-77
2023/07/06 03:31:32;;;;;;;12.18;8.82;;;12.30;99.90;;;;;;4969408;28;20433;-81
2023/07/06 03:33:58;;;;;;;11.93;9.05;;;12.50;99.90;;;;;;4988970;28;20453;-78
2023/07/06 03:36:24;;;;;;;11.00;8.75;;;12.50;99.90;;;;;;4995653;28;20803;-78
2023/07/06 03:38:50;;;;;;;13.98;9.38;;;12.50;99.90;;;;;;4996867;28;20822;-79
2023/07/06 03:41:17;;;;;;;14.13;8.73;;;12.60;99.90;;;;;;4987076;28;20550;-79
2023/07/06 03:43:44;;;;;;;15.73;10.30;;;12.60;99.90;;;;;;4989393;28;20873;-80
2023/07/06 03:46:10;;;;;;;13.10;9.30;;;12.60;99.90;;;;;;4996485;28;20450;-78
2023/07/06 03:48:36;;;;;;;12.38;8.63;;;12.70;99.90;;;;;;4988130;28;20544;-78
2023/07/06 03:51:04;;;;;;;11.88;8.60;;;12.70;99.90;;;;;;4975420;28;20498;-79
2023/07/06 03:53:31;;;;;;;13.83;8.70;;;12.80;99.90;;;;;;4987773;28;20529;-78
2023/07/06 03:55:58;;;;;;;12.98;8.77;;;12.70;99.90;;;;;;5001838;28;20832;-79
2023/07/06 03:58:24;;;;;;;16.05;9.13;;;12.70;99.90;;;;;;5000007;28;20432;-78
2023/07/06 04:00:50;;;;;;;12.00;8.03;;;12.80;99.90;;;;;;4957069;28;20416;-75
2023/07/06 04:03:15;;;;;;;11.27;8.20;;;12.80;99.90;;;;;;4971907;28;20432;-75
2023/07/06 04:05:47;;;;;;;16.67;9.27;;;12.80;99.90;;;;;;4986143;28;20575;-80
2023/07/06 04:08:17;;;;;;;13.80;8.67;;;12.90;99.90;;;;;;4967868;28;20434;-80
2023/07/06 04:10:43;;;;;;;13.32;9.05;;;13.00;99.90;;;;;;4997276;28;20457;-79
2023/07/06 04:13:11;;;;;;;16.25;9.27;;;12.90;99.90;;;;;;4988255;28;20426;-79
2023/07/06 04:15:39;;;;;;;13.95;8.77;;;13.00;99.90;;;;;;4988052;28;20790;-78
2023/07/06 04:18:05;;;;;;;12.68;8.90;;;12.90;99.90;;;;;;4987372;28;20410;-79
2023/07/06 04:20:34;;;;;;;14.57;9.10;;;12.90;99.90;;;;;;4989699;28;20469;-79
2023/07/06 04:23:00;;;;;;;14.38;10.00;;;13.00;99.90;;;;;;4988254;28;20783;-78
2023/07/06 04:25:31;;;;;;;17.23;9.43;;;12.90;99.90;;;;;;4993873;28;20425;-79
2023/07/06 04:28:10;;;;;;;16.08;9.20;;;13.10;99.90;;;;;;4991166;28;21032;-79
2023/07/06 04:30:39;;;;;;;18.88;9.50;;;13.10;99.90;;;;;;4986852;28;20430;-80
2023/07/06 04:33:06;;;;;;;14.93;9.55;;;13.00;99.90;;;;;;4992212;28;20435;-78
2023/07/06 04:35:33;;;;;;;14.80;9.65;;;13.10;99.90;;;;;;5001777;28;20983;-79
2023/07/06 04:38:02;;;;;;;15.75;9.30;;;13.00;99.90;;;;;;4996104;28;20451;-79
2023/07/06 04:40:30;;;;;;;14.93;9.68;;;13.00;99.90;;;;;;4995525;28;20510;-78
2023/07/06 04:42:56;;;;;;;17.80;10.10;;;13.10;99.90;;;;;;4989250;28;20912;-79
2023/07/06 04:45:24;;;;;;;15.05;9.80;;;13.10;99.90;;;;;;4996063;28;20946;-77
2023/07/06 04:47:51;;;;;;;15.63;9.67;;;13.10;99.90;;;;;;4997039;28;20800;-77
2023/07/06 04:50:22;;;;;;;16.40;9.75;;;13.10;99.90;;;;;;4975971;28;20502;-77
2023/07/06 04:52:51;;;;;;;18.63;11.02;;;13.20;99.90;;;;;;4993119;28;20438;-77
2023/07/06 04:55:22;;;;;;;19.05;10.30;;;13.60;99.90;;;;;;4981397;28;20422;-77
2023/07/06 04:57:54;;;;;;;15.80;10.17;;;13.30;99.90;;;;;;4993519;28;20535;-78
2023/07/06 05:00:30;;;;;;;13.65;9.85;;;13.40;99.90;;;;;;4982094;28;20881;-77
2023/07/06 05:03:07;;;;;;;16.63;10.32;;;13.50;99.90;;;;;;4982429;28;20438;-77
2023/07/06 05:05:38;;;;;;;16.60;9.77;;;13.50;99.90;;;;;;4995945;28;20913;-76
2023/07/06 05:08:05;;;;;;;24.02;10.98;;;13.50;99.90;;;;;;4994745;28;20442;-77
2023/07/06 05:10:34;;;;;;;16.23;11.37;;;13.70;99.90;;;;;;4992861;28;20874;-78
2023/07/06 05:13:00;;;;;;;15.68;9.82;;;13.70;99.90;;;;;;4990009;28;20515;-78
2023/07/06 05:15:26;;;;;;;17.75;11.02;;;13.70;99.90;;;;;;4971489;28;20466;-77
2023/07/06 05:17:53;;;;;;;14.25;10.38;;;13.80;99.90;;;;;;4983028;28;20476;-77
2023/07/06 05:20:20;;;;;;;17.60;10.85;;;13.80;99.90;;;;;;4964254;28;20434;-77
2023/07/06 05:22:48;;;;;;;17.40;10.90;;;13.90;99.90;;;;;;4994683;28;20418;-77
2023/07/06 05:25:19;;;;;;;16.73;10.70;;;13.90;99.90;;;;;;4971777;28;20462;-77
2023/07/06 05:27:45;;;;;;;17.50;11.02;;;14.10;99.90;;;;;;4997141;28;20426;-76
2023/07/06 05:30:12;;;;;;;16.65;11.68;;;14.10;99.90;;;;;;5006859;28;20774;-77
2023/07/06 05:32:39;;;;;;;18.30;10.48;;;14.20;99.90;;;;;;4993060;28;20418;-76
2023/07/06 05:35:05;;;;;;;20.85;11.63;;;14.30;99.90;;;;;;4993048;28;20438;-76
2023/07/06 05:37:33;;;;;;;17.58;10.35;;;14.20;99.90;;;;;;4991337;28;20429;-76
2023/07/06 05:40:01;;;;;;;18.80;11.18;;;14.30;99.90;;;;;;5001808;28;20472;-76
2023/07/06 05:42:27;;;;;;;18.95;10.00;;;14.40;99.90;;;;;;4992252;28;20423;-76
2023/07/06 05:44:53;;;;;;;19.73;10.80;;;14.50;99.90;;;;;;5004274;28;20432;-77
2023/07/06 05:47:18;;;;;;;22.15;10.13;;;14.80;99.90;;;;;;4993340;28;20827;-76
2023/07/06 05:49:44;;;;;;;17.35;10.32;;;14.80;99.90;;;;;;4979528;28;20494;-76
2023/07/06 05:52:10;;;;;;;19.92;11.07;;;14.90;99.90;;;;;;4990971;28;20462;-78
2023/07/06 05:54:36;;;;;;;20.48;10.50;;;15.10;99.90;;;;;;4992179;28;20434;-78
2023/07/06 05:57:08;;;;;;;16.57;10.03;;;15.10;99.90;;;;;;4996164;28;20457;-78
2023/07/06 05:59:36;;;;;;;18.92;10.57;;;15.20;99.90;;;;;;4997870;28;20502;-78
2023/07/06 06:02:09;;;;;;;20.63;9.90;;;15.20;99.90;;;;;;4992133;28;20913;-77
2023/07/06 06:04:37;;;;;;;20.40;10.05;;;15.20;99.90;;;;;;4990068;28;20577;-77
2023/07/06 06:07:06;;;;;;;17.38;9.07;;;15.30;99.90;;;;;;4993331;28;20432;-78
2023/07/06 06:09:35;;;;;;;17.45;10.07;;;15.30;99.90;;;;;;4973543;28;20434;-78
2023/07/06 06:12:06;;;;;;;18.35;9.73;;;15.40;99.90;;;;;;4971968;28;20965;-78
2023/07/06 06:14:34;;;;;;;14.27;9.05;;;15.30;99.90;;;;;;4981043;28;20432;-78
2023/07/06 06:17:03;;;;;;;15.65;9.88;;;15.40;99.90;;;;;;4979392;28;20423;-78
2023/07/06 06:19:37;;;;;;;22.90;9.30;;;15.40;99.90;;;;;;4989906;28;20438;-77
2023/07/06 06:22:04;;;;;;;15.30;8.57;;;15.60;99.90;;;;;;4954603;28;20971;-76
2023/07/06 06:24:33;;;;;;;17.95;9.18;;;15.70;99.90;;;;;;4972080;28;20436;-77
2023/07/06 06:27:01;;;;;;;19.03;9.30;;;15.80;99.90;;;;;;4974202;28;20487;-78
2023/07/06 06:29:27;;;;;;;16.33;8.50;;;15.70;99.90;;;;;;4986741;28;20515;-77
2023/07/06 06:31:54;;;;;;;17.92;8.75;;;15.80;99.90;;;;;;4969053;28;20475;-77
2023/07/06 06:34:20;;;;;;;16.42;9.27;;;15.90;99.90;;;;;;4971951;28;20450;-78
2023/07/06 06:36:46;;;;;;;22.63;9.82;;;15.90;99.90;;;;;;4971259;28;20560;-79
2023/07/06 06:39:12;;;;;;;18.13;8.20;;;16.00;99.90;;;;;;4960728;28;20530;-76
2023/07/06 06:41:39;;;;;;;15.85;8.18;;;16.10;99.90;;;;;;4967880;28;20522;-77
2023/07/06 06:44:05;;;;;;;15.95;8.07;;;16.20;99.90;;;;;;4971020;28;20903;-76
2023/07/06 06:46:31;;;;;;;14.75;7.50;;;16.30;99.90;;;;;;4978358;28;20490;-77
2023/07/06 06:48:57;;;;;;;15.38;7.53;;;16.30;99.90;;;;;;4970465;28;20432;-77
2023/07/06 06:51:24;;;;;;;15.07;6.60;;;16.40;99.90;;;;;;4968839;28;20783;-78
2023/07/06 06:53:53;;;;;;;15.60;6.50;;;16.50;99.90;;;;;;4970636;28;20428;-79
2023/07/06 06:56:19;;;;;;;15.20;6.35;;;17.80;99.90;;;;;;4973255;28;20443;-77
2023/07/06 06:58:46;;;;;;;13.77;5.85;;;17.80;99.90;;;;;;4970846;28;20420;-77
2023/07/06 07:01:13;;;;;;;15.93;6.03;;;18.50;99.90;;;;;;4978421;28;20432;-79
2023/07/06 07:03:39;;;;;;;11.82;5.80;;;19.50;99.90;;;;;;4963516;28;20569;-81
2023/07/06 07:06:13;;;;;;;12.00;4.72;;;19.90;99.90;;;;;;4972041;28;20432;-78
2023/07/06 07:08:49;;;;;;;11.02;4.32;;;19.30;99.90;;;;;;4981697;28;20429;-78
2023/07/06 07:11:20;;;;;;;18.77;5.25;;;19.80;99.90;;;;;;4968206;28;20424;-77
2023/07/06 07:13:47;;;;;;;9.80;4.07;;;20.50;99.90;;;;;;4976057;28;20461;-77
2023/07/06 07:16:14;;;;;;;17.52;4.88;;;21.10;99.90;;;;;;4968189;28;20927;-78
2023/07/06 07:18:45;;;;;;;7.13;3.60;;;21.20;99.90;;;;;;4984672;28;20434;-77
2023/07/06 07:21:12;;;;;;;12.55;4.40;;;21.50;99.90;;;;;;4972751;28;20415;-79
2023/07/06 07:23:43;;;;;;;9.80;3.92;;;21.60;99.90;;;;;;4971955;28;20574;-76
2023/07/06 07:26:12;;;;;;;12.40;3.83;;;22.20;99.90;;;;;;4970564;28;20420;-78
2023/07/06 07:28:38;;;;;;;11.65;3.75;;;22.50;99.90;;;;;;4969046;28;20475;-76
2023/07/06 07:31:07;;;;;;;10.52;3.90;;;22.70;99.90;;;;;;4975318;28;20422;-78
2023/07/06 07:33:34;;;;;;;10.68;4.28;;;22.00;99.90;;;;;;4970033;28;20416;-78
2023/07/06 07:36:02;;;;;;;9.65;3.20;;;22.20;99.90;;;;;;4967765;28;20440;-78
2023/07/06 07:38:28;;;;;;;6.50;2.70;;;21.70;99.90;;;;;;4968658;28;20435;-77
2023/07/06 07:40:59;;;;;;;7.03;2.38;;;22.40;99.90;;;;;;4971675;28;20503;-77
2023/07/06 07:43:32;;;;;;;5.43;2.63;;;22.00;99.90;;;;;;4971517;28;20459;-77
2023/07/06 07:46:05;;;;;;;6.65;2.35;;;22.10;99.90;;;;;;4970806;28;20412;-77
2023/07/06 07:48:33;;;;;;;6.32;2.22;;;21.70;99.90;;;;;;4969137;28;20463;-78
2023/07/06 07:51:03;;;;;;;5.68;2.65;;;22.70;99.90;;;;;;4970518;28;20854;-79
2023/07/06 07:53:33;;;;;;;5.40;2.78;;;21.90;99.90;;;;;;4967053;28;20467;-79
2023/07/06 07:55:59;;;;;;;4.50;1.88;;;21.60;99.90;;;;;;4973514;28;20436;-77
2023/07/06 07:58:28;;;;;;;5.37;1.70;;;21.20;99.90;;;;;;4985463;28;20422;-76
2023/07/06 08:00:55;;;;;;;6.43;2.35;;;21.20;99.90;;;;;;4978300;28;20530;-77
2023/07/06 08:03:23;;;;;;;7.38;2.88;;;21.10;99.90;;;;;;4976738;28;20885;-77
2023/07/06 08:05:52;;;;;;;5.00;1.50;;;20.60;99.90;;;;;;4987955;28;20429;-79
2023/07/06 08:08:18;;;;;;;4.43;2.17;;;20.20;99.90;;;;;;4975821;28;20420;-76
2023/07/06 08:10:45;;;;;;;5.78;1.65;;;20.20;99.90;;;;;;4986965;28;20505;-77
2023/07/06 08:13:11;;;;;;;7.30;2.10;;;20.00;99.90;;;;;;4995688;28;20491;-77
2023/07/06 08:15:38;;;;;;;7.18;1.45;;;20.20;99.90;;;;;;4953971;28;21251;-74
2023/07/06 08:18:06;;;;;;;5.85;1.42;;;20.00;99.90;;;;;;4971561;28;20434;-78
2023/07/06 08:20:32;;;;;;;7.30;1.95;;;19.60;99.90;;;;;;4987638;28;20445;-77
2023/07/06 08:23:10;;;;;;;7.88;2.10;;;19.60;99.90;;;;;;4996946;28;20791;-76
2023/07/06 08:25:37;;;;;;;6.17;2.20;;;20.00;99.90;;;;;;4993173;28;20517;-76
2023/07/06 08:28:07;;;;;;;6.00;2.35;;;20.30;99.90;;;;;;4989571;28;20517;-77
2023/07/06 08:30:34;;;;;;;6.63;1.58;;;19.90;99.90;;;;;;4988619;28;20414;-78
2023/07/06 08:33:02;;;;;;;3.97;1.52;;;19.60;99.90;;;;;;4991018;28;20424;-76
2023/07/06 08:35:29;;;;;;;2.72;1.63;;;19.70;99.90;;;;;;5001047;28;20484;-77
2023/07/06 08:37:56;;;;;;;3.88;1.70;;;20.30;99.90;;;;;;4995302;28;20807;-77
2023/07/06 08:40:26;;;;;;;4.63;1.70;;;20.50;99.90;;;;;;5008919;28;20409;-78
2023/07/06 08:42:55;;;;;;;5.18;1.88;;;20.70;99.90;;;;;;4989815;28;20963;-76
2023/07/06 08:45:23;;;;;;;6.40;2.03;;;20.80;99.90;;;;;;4988665;28;20442;-77
2023/07/06 08:47:51;;;;;;;5.15;1.90;;;20.90;99.90;;;;;;4989312;28;20460;-76
2023/07/06 08:50:24;;;;;;;4.80;2.10;;;20.80;99.90;;;;;;4990080;28;20424;-79
2023/07/06 08:52:53;;;;;;;5.32;1.92;;;20.40;99.90;;;;;;4995965;28;20424;-74
2023/07/06 08:55:19;;;;;;;5.40;1.88;;;20.50;99.90;;;;;;4990577;28;20978;-75
2023/07/06 08:57:46;;;;;;;4.85;1.63;;;20.60;99.90;;;;;;4993732;28;20510;-77
2023/07/06 09:00:25;;;;;;;5.18;1.95;;;20.90;99.90;;;;;;4991518;28;20461;-78
2023/07/06 09:02:54;;;;;;;6.38;2.00;;;21.00;99.90;;;;;;4979508;28;20602;-76
2023/07/06 09:05:20;;;;;;;4.60;2.00;;;20.80;99.90;;;;;;4982993;28;20440;-78
2023/07/06 09:07:47;;;;;;;5.77;1.70;;;20.90;99.90;;;;;;4988230;28;20446;-78
2023/07/06 09:10:17;;;;;;;7.38;2.55;;;20.80;99.90;;;;;;4952724;28;1160833;-79
2023/07/06 09:12:43;;;;;;;5.43;1.70;;;20.60;99.90;;;;;;4990969;28;20431;-77
2023/07/06 09:15:13;;;;;;;9.68;2.28;;;20.70;99.90;;;;;;4995717;28;20801;-83
2023/07/06 09:17:45;;;;;;;4.53;2.33;;;20.40;99.90;;;;;;4992442;28;20497;-82
2023/07/06 09:20:16;;;;;;;8.00;1.95;;;20.70;99.90;;;;;;4973967;28;20774;-78
2023/07/06 09:22:43;;;;;;;4.18;1.85;;;20.50;99.90;;;;;;4982906;28;20426;-77
2023/07/06 09:25:25;;;;;;;6.20;2.30;;;20.50;99.90;;;;;;4992524;28;20449;-79
2023/07/06 09:27:51;;;;;;;4.63;2.30;;;20.40;99.90;;;;;;4991226;28;20492;-79
2023/07/06 09:30:30;;;;;;;6.68;1.80;;;20.30;99.90;;;;;;4996990;28;20416;-79
2023/07/06 09:33:31;;;;;;;5.47;1.95;;;20.10;99.90;;;;;;4990072;28;20409;-77
2023/07/06 09:35:57;;;;;;;5.60;2.30;;;20.10;99.90;;;;;;5000245;28;20956;-78
2023/07/06 09:38:25;;;;;;;6.18;2.30;;;20.20;99.90;;;;;;4987985;28;20436;-79
2023/07/06 09:40:52;;;;;;;4.73;1.87;;;20.10;99.90;;;;;;4993489;28;20413;-79
2023/07/06 09:43:27;;;;;;;7.33;3.30;;;20.20;99.90;;;;;;4990813;28;20424;-79
2023/07/06 09:45:54;;;;;;;4.95;2.20;;;19.90;99.90;;;;;;5005282;28;20426;-79
2023/07/06 09:48:26;;;;;;;6.90;1.73;;;19.80;99.90;;;;;;4993254;28;20431;-77
2023/07/06 09:50:57;;;;;;;5.03;1.85;;;19.50;99.90;;;;;;4992433;28;20422;-78
2023/07/06 09:53:28;;;;;;;4.80;1.73;;;19.60;99.90;;;;;;4993099;28;20433;-80
2023/07/06 09:55:54;;;;;;;4.40;1.90;;;19.40;99.90;;;;;;4979740;28;20505;-78
2023/07/06 09:58:25;;;;;;;6.35;2.20;;;19.40;99.90;;;;;;4993489;28;20707;-78
2023/07/06 10:01:05;;;;;;;4.97;2.28;;;19.30;99.90;;;;;;4987559;28;20439;-80
2023/07/06 10:03:50;;;;;;;5.00;2.20;;;19.50;99.90;;;;;;4993992;28;20766;-78
2023/07/06 10:06:19;;;;;;;5.10;2.10;;;20.00;99.90;;;;;;4974772;28;20493;-78
2023/07/06 10:09:17;;;;;;;5.32;1.70;;;20.60;99.90;;;;;;4993342;28;20442;-80
2023/07/06 10:11:57;;;;;;;4.68;2.15;;;20.30;99.90;;;;;;4965897;28;20441;-78
2023/07/06 10:14:40;;;;;;;5.88;1.90;;;20.00;99.90;;;;;;4992732;28;20434;-77
2023/07/06 10:17:14;;;;;;;6.07;1.70;;;19.90;99.90;;;;;;5005254;28;20412;-77
2023/07/06 10:20:12;;;;;;;5.55;1.95;;;19.80;99.90;;;;;;4994655;28;20455;-79
2023/07/06 10:23:00;;;;;;;5.57;2.03;;;19.70;99.90;;;;;;4992607;28;20424;-79
2023/07/06 10:25:40;;;;;;;5.82;2.50;;;19.60;99.90;;;;;;4992107;28;20963;-78
2023/07/06 10:28:14;;;;;;;6.45;3.05;;;19.70;99.90;;;;;;4993281;28;20434;-78
2023/07/06 10:30:47;;;;;;;5.32;2.35;;;20.40;99.90;;;;;;4993621;28;20434;-77
2023/07/06 10:33:28;;;;;;;5.60;2.58;;;20.50;99.90;;;;;;4996856;28;20441;-79
2023/07/06 10:35:55;;;;;;;6.75;3.47;;;20.20;99.90;;;;;;4993792;28;21151;-80
2023/07/06 10:38:21;;;;;;;6.88;2.38;;;20.00;99.90;;;;;;4996419;28;20430;-78
2023/07/06 10:41:11;;;;;;;5.35;2.40;;;19.90;99.90;;;;;;4995999;28;20489;-77
2023/07/06 10:43:40;;;;;;;5.97;2.45;;;19.90;99.90;;;;;;4982262;28;20840;-81
2023/07/06 10:46:32;;;;;;;3.50;2.15;;;19.70;99.90;;;;;;4991421;28;20430;-80
2023/07/06 10:49:13;;;;;;;6.78;2.63;;;19.60;99.90;;;;;;5007034;28;20431;-77
2023/07/06 10:51:56;;;;;;;8.80;2.30;;;19.60;99.90;;;;;;4981283;28;20420;-85
2023/07/06 10:54:31;;;;;;;5.97;2.30;;;19.50;99.90;;;;;;5005067;28;20434;-84
2023/07/06 10:57:01;;;;;;;6.40;3.00;;;19.60;99.90;;;;;;5000163;28;20403;-81
2023/07/06 10:59:44;;;;;;;4.82;2.45;;;19.70;99.90;;;;;;4982146;28;20434;-80
2023/07/06 11:02:38;;;;;;;5.33;2.00;;;19.70;99.90;;;;;;5014524;28;20420;-79
2023/07/06 11:05:25;;;;;;;5.60;2.50;;;19.90;99.90;;;;;;5013112;28;20424;-79
2023/07/06 11:07:53;;;;;;;3.70;2.22;;;20.00;99.90;;;;;;5001499;28;20854;-83
2023/07/06 11:10:43;;;;;;;6.35;2.25;;;20.30;99.90;;;;;;4996309;28;20446;-82
2023/07/06 11:13:09;;;;;;;6.03;2.30;;;20.50;99.90;;;;;;4993146;28;20438;-79
2023/07/06 11:15:56;;;;;;;4.65;1.77;;;20.30;99.90;;;;;;4978066;28;20430;-81
2023/07/06 11:18:21;;;;;;;2.67;1.48;;;20.20;99.90;;;;;;4989954;28;20436;-80
2023/07/06 11:21:15;;;;;;;4.27;1.73;;;20.20;99.90;;;;;;4993373;28;20504;-81
2023/07/06 11:23:56;;;;;;;3.73;1.30;;;20.20;99.90;;;;;;4958483;28;20458;-77
2023/07/06 11:26:33;;;;;;;4.50;1.27;;;20.10;99.90;;;;;;4993959;28;20418;-79
2023/07/06 11:28:59;;;;;;;1.25;0.77;;;20.30;99.90;;;;;;4995110;28;20550;-79
2023/07/06 11:31:43;;;;;;;2.47;0.93;;;20.20;99.90;;;;;;5001898;28;20458;-78
2023/07/06 11:34:23;;;;;;;3.83;1.50;;;20.00;99.90;;;;;;4997683;28;20446;-81
2023/07/06 11:37:18;;;;;;;3.90;0.90;;;19.90;99.90;;;;;;4986093;28;20432;-79
2023/07/06 11:39:54;;;;;;;2.03;1.05;;;19.80;99.90;;;;;;5008833;28;20434;-80
2023/07/06 11:42:33;;;;;;;3.88;1.08;;;20.00;99.90;;;;;;4989341;28;20974;-77
2023/07/06 11:45:07;;;;;;;2.20;1.00;;;20.60;99.90;;;;;;4993613;28;20797;-78
2023/07/06 11:47:58;;;;;;;2.70;0.80;;;21.00;99.90;;;;;;4998102;28;20498;-80
2023/07/06 11:50:33;;;;;;;5.50;0.90;;;21.20;99.90;;;;;;4990354;28;20444;-80
2023/07/06 11:53:09;;;;;;;3.27;0.80;;;21.20;99.90;;;;;;4993253;28;20611;-80
2023/07/06 11:55:50;;;;;;;2.60;0.80;;;21.40;99.90;;;;;;4994307;28;20414;-84
2023/07/06 11:58:31;;;;;;;2.08;0.90;;;21.60;99.90;;;;;;4973146;28;20510;-77
2023/07/06 12:01:10;;;;;;;3.40;0.80;;;21.80;99.90;;;;;;5012021;28;20436;-77
2023/07/06 12:03:37;;;;;;;2.87;0.80;;;21.90;99.90;;;;;;4995348;28;20484;-77
2023/07/06 12:06:03;;;;;;;2.53;1.30;;;22.20;99.90;;;;;;4991139;28;20437;-78
2023/07/06 12:08:36;;;;;;;4.57;1.00;;;22.10;99.90;;;;;;4994921;28;20420;-76
2023/07/06 12:11:15;;;;;;;4.75;1.75;;;21.90;99.90;;;;;;4993947;28;20929;-77
2023/07/06 12:13:44;;;;;;;6.43;1.97;;;21.80;99.90;;;;;;4992901;28;20429;-78
2023/07/06 12:16:18;;;;;;;2.78;1.33;;;21.40;99.90;;;;;;4989668;28;20513;-79
2023/07/06 12:18:45;;;;;;;3.17;1.00;;;21.50;99.90;;;;;;4988337;28;20429;-79
2023/07/06 12:21:28;;;;;;;4.17;0.87;;;21.60;99.90;;;;;;4972138;28;20422;-77
2023/07/06 12:23:58;;;;;;;4.13;1.30;;;22.00;99.90;;;;;;4981002;28;20492;-78
2023/07/06 12:26:24;;;;;;;5.45;1.30;;;21.90;99.90;;;;;;4991563;28;20409;-77
2023/07/06 12:28:50;;;;;;;3.90;0.77;;;21.60;99.90;;;;;;4990379;28;20659;-78
2023/07/06 12:31:16;;;;;;;2.90;0.98;;;21.60;99.90;;;;;;4988947;28;20414;-76
2023/07/06 12:33:43;;;;;;;2.88;1.00;;;21.70;99.90;;;;;;4987082;28;20425;-79
2023/07/06 12:36:13;;;;;;;4.00;1.60;;;21.60;99.90;;;;;;4987779;28;20430;-79
2023/07/06 12:38:39;;;;;;;5.47;1.30;;;21.90;99.90;;;;;;4989076;28;20430;-79
2023/07/06 12:41:19;;;;;;;2.05;1.15;;;22.20;99.90;;;;;;4984168;28;20481;-77
2023/07/06 12:43:45;;;;;;;4.50;1.00;;;22.20;99.90;;;;;;4973806;28;20426;-76
2023/07/06 12:46:12;;;;;;;5.20;1.05;;;22.50;99.90;;;;;;4986817;28;20430;-77
2023/07/06 12:48:47;;;;;;;2.40;1.53;;;22.50;99.90;;;;;;4962491;28;20485;-77
2023/07/06 12:51:19;;;;;;;2.70;1.25;;;22.60;99.90;;;;;;4988683;28;20510;-77
2023/07/06 12:53:47;;;;;;;6.32;1.92;;;22.40;99.90;;;;;;4990837;28;20949;-78
2023/07/06 12:56:20;;;;;;;2.53;1.48;;;22.60;99.90;;;;;;4989848;28;20426;-77
2023/07/06 12:58:58;;;;;;;2.85;1.30;;;22.90;99.90;;;;;;4991665;28;20435;-77